Velacarina — MKYB6 — position and weather

sailwx.info

Track history (hours):
 
Tides and Currents Weather Stations Pressure Air Temp Water Temp Dewpoint Dewpoint Depression Visibility Wind Speed Wind Dir Waves Ship Positions

Velacarina

Last reported at 2018-Jan-11 15:44 UTC. Time now 2018-Apr-21 19:27 UTC.
Position N 43°24' E 010°25'.
Warning: this ship's position is months out of date.

Length 26 m.

Type: Sailing vessel. MMSI: 235010280.

Date/timePositionNaut miles runAvg speedWind from/ knotsBaromVisibWave heightAir tempDewpointWater temp
2018-Jan-11 15:44N 43°24' E 010°25'1 6.4
2018-Jan-11 15:30N 43°23' E 010°23'3 6.9
2018-Jan-11 15:00N 43°22' E 010°19'3 6.7
2018-Jan-11 14:30N 43°20' E 010°14'3 6.7
2018-Jan-11 14:01N 43°19' E 010°10'4 6.6
2018-Jan-11 13:27N 43°18' E 010°05'3 6.5
2018-Jan-11 13:01N 43°16' E 010°02'3 6.6
2018-Jan-11 12:31N 43°15' E 009°58'4 7.0
2018-Jan-11 12:00N 43°14' E 009°53'4 7.2
2018-Jan-11 11:28N 43°12' E 009°48'355 8.2
2018-Jan-09 16:06N 40°04' E 003°07'2 8.6
2018-Jan-09 15:55N 40°03' E 003°05'10 8.7
2018-Jan-09 14:48N 39°58' E 002°54'12 8.9
2018-Jan-09 13:27N 39°51' E 002°41'4 8.8
2018-Jan-09 13:00N 39°48' E 002°37'7 8.6
2018-Jan-09 12:12N 39°44' E 002°30'3 8.6
2018-Jan-09 11:52N 39°42' E 002°28'4 8.5
2018-Jan-09 11:23N 39°39' E 002°24'9 7.0
2018-Jan-09 10:08N 39°31' E 002°23'1 8.2
2018-Jan-09 09:59N 39°30' E 002°25'4 8.0
2018-Jan-09 09:28N 39°27' E 002°29'3 5.5
2018-Jan-09 09:00N 39°28' E 002°32'3 6.0
2018-Jan-09 08:31N 39°30' E 002°35'3 6.2
2018-Jan-09 08:01N 39°32' E 002°38'2 3.8
2018-Jan-09 07:30N 39°34' E 002°39'0 0.0
2018-Jan-09 06:49N 39°34' E 002°39'0 0.0
2018-Jan-09 06:30N 39°34' E 002°39'0 0.0
2018-Jan-09 06:00N 39°34' E 002°39'0 0.0
2018-Jan-09 05:30N 39°34' E 002°39'0 0.0
2018-Jan-09 05:00N 39°34' E 002°39'0 0.0
2018-Jan-09 04:30N 39°34' E 002°39'0 0.0
2018-Jan-09 04:00N 39°34' E 002°39'0 0.0
2018-Jan-09 03:30N 39°34' E 002°39'0 0.0
2018-Jan-09 03:00N 39°34' E 002°39'0 0.0
2018-Jan-09 02:30N 39°34' E 002°39'0 0.0
2018-Jan-09 02:00N 39°34' E 002°39'0 0.0
2018-Jan-09 01:30N 39°34' E 002°39'0 0.0
2018-Jan-09 01:00N 39°34' E 002°39'0 0.0
2018-Jan-09 00:30N 39°34' E 002°39'0 0.0
2018-Jan-09 00:00N 39°34' E 002°39'0 0.0
2018-Jan-08 23:30N 39°34' E 002°39'0 0.0
2018-Jan-08 23:00N 39°34' E 002°39'0 0.0
2018-Jan-08 22:30N 39°34' E 002°39'0 0.0
2018-Jan-08 22:00N 39°34' E 002°39'0 0.0
2018-Jan-08 21:30N 39°34' E 002°39'0 0.0
2018-Jan-08 21:00N 39°34' E 002°39'0 0.0
2018-Jan-08 20:30N 39°34' E 002°39'0 0.0
2018-Jan-08 20:00N 39°34' E 002°39'0 0.0
2018-Jan-08 19:30N 39°34' E 002°39'0 0.0
2018-Jan-08 19:00N 39°34' E 002°39'0 0.0
2018-Jan-08 18:30N 39°34' E 002°39'0 0.0
2018-Jan-08 18:00N 39°34' E 002°39'0 0.0
2018-Jan-08 17:30N 39°34' E 002°39'0 0.0
2018-Jan-08 17:00N 39°34' E 002°39'0 0.0
2018-Jan-08 16:30N 39°34' E 002°39'0 0.0
2018-Jan-08 16:00N 39°34' E 002°39'0 0.0
2018-Jan-08 15:30N 39°34' E 002°39'0 0.0
2018-Jan-08 15:00N 39°34' E 002°39'0 0.0
2018-Jan-08 14:30N 39°34' E 002°39'0 0.0
2018-Jan-08 14:00N 39°34' E 002°39'0 0.0
2018-Jan-08 13:30N 39°34' E 002°39'0 0.0
2018-Jan-08 13:00N 39°34' E 002°39'0 0.0
2018-Jan-08 12:30N 39°34' E 002°39'0 0.0
2018-Jan-08 12:00N 39°34' E 002°39'0 0.0
2018-Jan-08 11:30N 39°34' E 002°39'0 0.0
2018-Jan-08 11:00N 39°34' E 002°39'0 0.0
2018-Jan-08 10:30N 39°34' E 002°39'0 0.0
2018-Jan-07 10:15N 39°34' E 002°39'0 0.0
2018-Jan-07 10:00N 39°34' E 002°39'  
2018-Jan-04 17:24N 39°34' E 002°39'0 0.0
2018-Jan-04 17:00N 39°34' E 002°39'0 0.0
2018-Jan-04 16:30N 39°34' E 002°39'0 0.0
2018-Jan-04 16:00N 39°34' E 002°39'0 0.0
2018-Jan-04 15:31N 39°34' E 002°39'0 0.0
2018-Jan-04 15:00N 39°34' E 002°39'0 0.0
2018-Jan-04 14:30N 39°34' E 002°39'0 0.3
2018-Jan-04 14:00N 39°34' E 002°38'1 1.4
2018-Jan-04 13:30N 39°33' E 002°38'2 4.8
2018-Jan-04 13:00N 39°31' E 002°37'4 7.9
2018-Jan-04 12:30N 39°29' E 002°33'3 5.2
2018-Jan-04 12:00N 39°31' E 002°35'2 4.0
2018-Jan-04 11:30N 39°32' E 002°37'2 3.8
2018-Jan-04 11:00N 39°33' E 002°39'1 1.5
2018-Jan-04 10:30N 39°34' E 002°39'  
Track history (hours):
 
Tides and Currents Weather Stations Pressure Air Temp Water Temp Dewpoint Dewpoint Depression Visibility Wind Speed Wind Dir Waves Ship Positions

Velacarina

Last reported at 2018-Jan-11 15:44 UTC. Time now 2018-Apr-21 19:27 UTC.
Position N 43°24' E 010°25'.
Warning: this ship's position is months out of date.

Length 26 m.

Type: Sailing vessel. MMSI: 235010280.

Date/timePositionNaut miles runAvg speedWind from/ knotsBaromVisibWave heightAir tempDewpointWater temp
2018-Jan-11 15:44N 43°24' E 010°25'1 6.4
2018-Jan-11 15:30N 43°23' E 010°23'3 6.9
2018-Jan-11 15:00N 43°22' E 010°19'3 6.7
2018-Jan-11 14:30N 43°20' E 010°14'3 6.7
2018-Jan-11 14:01N 43°19' E 010°10'4 6.6
2018-Jan-11 13:27N 43°18' E 010°05'3 6.5
2018-Jan-11 13:01N 43°16' E 010°02'3 6.6
2018-Jan-11 12:31N 43°15' E 009°58'4 7.0
2018-Jan-11 12:00N 43°14' E 009°53'4 7.2
2018-Jan-11 11:28N 43°12' E 009°48'355 8.2
2018-Jan-09 16:06N 40°04' E 003°07'2 8.6
2018-Jan-09 15:55N 40°03' E 003°05'10 8.7
2018-Jan-09 14:48N 39°58' E 002°54'12 8.9
2018-Jan-09 13:27N 39°51' E 002°41'4 8.8
2018-Jan-09 13:00N 39°48' E 002°37'7 8.6
2018-Jan-09 12:12N 39°44' E 002°30'3 8.6
2018-Jan-09 11:52N 39°42' E 002°28'4 8.5
2018-Jan-09 11:23N 39°39' E 002°24'9 7.0
2018-Jan-09 10:08N 39°31' E 002°23'1 8.2
2018-Jan-09 09:59N 39°30' E 002°25'4 8.0
2018-Jan-09 09:28N 39°27' E 002°29'3 5.5
2018-Jan-09 09:00N 39°28' E 002°32'3 6.0
2018-Jan-09 08:31N 39°30' E 002°35'3 6.2
2018-Jan-09 08:01N 39°32' E 002°38'2 3.8
2018-Jan-09 07:30N 39°34' E 002°39'0 0.0
2018-Jan-09 06:49N 39°34' E 002°39'0 0.0
2018-Jan-09 06:30N 39°34' E 002°39'0 0.0
2018-Jan-09 06:00N 39°34' E 002°39'0 0.0
2018-Jan-09 05:30N 39°34' E 002°39'0 0.0
2018-Jan-09 05:00N 39°34' E 002°39'0 0.0
2018-Jan-09 04:30N 39°34' E 002°39'0 0.0
2018-Jan-09 04:00N 39°34' E 002°39'0 0.0
2018-Jan-09 03:30N 39°34' E 002°39'0 0.0
2018-Jan-09 03:00N 39°34' E 002°39'0 0.0
2018-Jan-09 02:30N 39°34' E 002°39'0 0.0
2018-Jan-09 02:00N 39°34' E 002°39'0 0.0
2018-Jan-09 01:30N 39°34' E 002°39'0 0.0
2018-Jan-09 01:00N 39°34' E 002°39'0 0.0
2018-Jan-09 00:30N 39°34' E 002°39'0 0.0
2018-Jan-09 00:00N 39°34' E 002°39'0 0.0
2018-Jan-08 23:30N 39°34' E 002°39'0 0.0
2018-Jan-08 23:00N 39°34' E 002°39'0 0.0
2018-Jan-08 22:30N 39°34' E 002°39'0 0.0
2018-Jan-08 22:00N 39°34' E 002°39'0 0.0
2018-Jan-08 21:30N 39°34' E 002°39'0 0.0
2018-Jan-08 21:00N 39°34' E 002°39'0 0.0
2018-Jan-08 20:30N 39°34' E 002°39'0 0.0
2018-Jan-08 20:00N 39°34' E 002°39'0 0.0
2018-Jan-08 19:30N 39°34' E 002°39'0 0.0
2018-Jan-08 19:00N 39°34' E 002°39'0 0.0
2018-Jan-08 18:30N 39°34' E 002°39'0 0.0
2018-Jan-08 18:00N 39°34' E 002°39'0 0.0
2018-Jan-08 17:30N 39°34' E 002°39'0 0.0
2018-Jan-08 17:00N 39°34' E 002°39'0 0.0
2018-Jan-08 16:30N 39°34' E 002°39'0 0.0
2018-Jan-08 16:00N 39°34' E 002°39'0 0.0
2018-Jan-08 15:30N 39°34' E 002°39'0 0.0
2018-Jan-08 15:00N 39°34' E 002°39'0 0.0
2018-Jan-08 14:30N 39°34' E 002°39'0 0.0
2018-Jan-08 14:00N 39°34' E 002°39'0 0.0
2018-Jan-08 13:30N 39°34' E 002°39'0 0.0
2018-Jan-08 13:00N 39°34' E 002°39'0 0.0
2018-Jan-08 12:30N 39°34' E 002°39'0 0.0
2018-Jan-08 12:00N 39°34' E 002°39'0 0.0
2018-Jan-08 11:30N 39°34' E 002°39'0 0.0
2018-Jan-08 11:00N 39°34' E 002°39'0 0.0
2018-Jan-08 10:30N 39°34' E 002°39'0 0.0
2018-Jan-07 10:15N 39°34' E 002°39'0 0.0
2018-Jan-07 10:00N 39°34' E 002°39'  
2018-Jan-04 17:24N 39°34' E 002°39'0 0.0
2018-Jan-04 17:00N 39°34' E 002°39'0 0.0
2018-Jan-04 16:30N 39°34' E 002°39'0 0.0
2018-Jan-04 16:00N 39°34' E 002°39'0 0.0
2018-Jan-04 15:31N 39°34' E 002°39'0 0.0
2018-Jan-04 15:00N 39°34' E 002°39'0 0.0
2018-Jan-04 14:30N 39°34' E 002°39'0 0.3
2018-Jan-04 14:00N 39°34' E 002°38'1 1.4
2018-Jan-04 13:30N 39°33' E 002°38'2 4.8
2018-Jan-04 13:00N 39°31' E 002°37'4 7.9
2018-Jan-04 12:30N 39°29' E 002°33'3 5.2
2018-Jan-04 12:00N 39°31' E 002°35'2 4.0
2018-Jan-04 11:30N 39°32' E 002°37'2 3.8
2018-Jan-04 11:00N 39°33' E 002°39'1 1.5
2018-Jan-04 10:30N 39°34' E 002°39'  

Dump ship's entire track history